createdAt,value
2023-03-16T00:00:22.673Z,12.10
2023-03-16T00:02:52.025Z,14.37
2023-03-16T00:05:20.519Z,14.60
2023-03-16T00:07:48.638Z,13.40
2023-03-16T00:10:16.960Z,13.03
2023-03-16T00:12:45.124Z,13.10
2023-03-16T00:15:13.327Z,14.17
2023-03-16T00:17:41.204Z,14.07
2023-03-16T00:20:12.233Z,13.00
2023-03-16T00:22:40.219Z,15.53
2023-03-16T00:25:09.109Z,14.20
2023-03-16T00:27:37.114Z,16.13
2023-03-16T00:30:06.268Z,11.60
2023-03-16T00:32:36.618Z,13.23
2023-03-16T00:35:09.265Z,11.20
2023-03-16T00:37:39.819Z,14.23
2023-03-16T00:40:09.870Z,12.60
2023-03-16T00:42:37.937Z,11.17
2023-03-16T00:45:07.009Z,11.97
2023-03-16T00:47:35.818Z,10.93
2023-03-16T00:50:04.120Z,13.73
2023-03-16T00:52:32.338Z,12.03
2023-03-16T00:55:03.667Z,12.60
2023-03-16T00:57:32.081Z,14.70
2023-03-16T01:00:00.387Z,10.17
2023-03-16T01:02:28.303Z,11.10
2023-03-16T01:04:56.269Z,12.93
2023-03-16T01:07:24.316Z,11.57
2023-03-16T01:09:52.338Z,12.17
2023-03-16T01:12:21.900Z,11.27
2023-03-16T01:14:49.874Z,12.53
2023-03-16T01:17:18.923Z,12.50
2023-03-16T01:19:47.889Z,13.00
2023-03-16T01:22:18.564Z,11.67
2023-03-16T01:24:46.827Z,10.73
2023-03-16T01:27:15.768Z,11.47
2023-03-16T01:29:45.374Z,10.27
2023-03-16T01:32:14.297Z,13.77
2023-03-16T01:34:42.311Z,10.07
2023-03-16T01:37:10.325Z,7.13
2023-03-16T01:39:38.267Z,8.40
2023-03-16T01:42:06.497Z,10.17
2023-03-16T01:44:55.221Z,10.60
2023-03-16T01:47:24.115Z,10.70
2023-03-16T01:49:55.772Z,9.13
2023-03-16T01:52:26.743Z,11.43
2023-03-16T01:54:58.267Z,9.70
2023-03-16T01:57:30.617Z,8.97
2023-03-16T02:00:09.098Z,10.33
2023-03-16T02:02:39.995Z,7.83
2023-03-16T02:05:13.911Z,8.17
2023-03-16T02:07:45.583Z,10.23
2023-03-16T02:10:16.677Z,13.57
2023-03-16T02:12:45.737Z,9.70
2023-03-16T02:15:16.422Z,8.20
2023-03-16T02:17:45.872Z,9.63
2023-03-16T02:20:26.579Z,6.63
2023-03-16T02:22:55.496Z,6.97
2023-03-16T02:25:25.716Z,7.17
2023-03-16T02:28:02.473Z,9.27
2023-03-16T02:30:32.319Z,8.87
2023-03-16T02:33:00.415Z,9.43
2023-03-16T02:35:28.495Z,7.17
2023-03-16T02:37:56.441Z,9.93
2023-03-16T02:40:27.410Z,9.57
2023-03-16T02:43:03.235Z,13.13
2023-03-16T02:45:39.455Z,6.30
2023-03-16T02:48:15.149Z,7.03
2023-03-16T02:50:51.021Z,10.10
2023-03-16T02:53:19.381Z,7.27
2023-03-16T02:55:47.469Z,8.33
2023-03-16T02:58:15.976Z,8.33
2023-03-16T03:00:46.567Z,6.90
2023-03-16T03:03:14.972Z,7.63
2023-03-16T03:05:42.838Z,8.80
2023-03-16T03:08:10.722Z,7.57
2023-03-16T03:10:38.619Z,9.57
2023-03-16T03:13:07.813Z,7.53
2023-03-16T03:15:35.761Z,6.13
2023-03-16T03:18:05.673Z,7.50
2023-03-16T03:20:34.048Z,7.87
2023-03-16T03:23:04.371Z,6.00
2023-03-16T03:25:34.893Z,6.77
2023-03-16T03:28:05.555Z,9.03
2023-03-16T03:30:33.939Z,7.13
2023-03-16T03:33:02.780Z,7.83
2023-03-16T03:35:32.374Z,7.13
2023-03-16T03:38:00.287Z,5.53
2023-03-16T03:40:28.339Z,10.57
2023-03-16T03:42:56.887Z,8.17
2023-03-16T03:45:24.777Z,7.70
2023-03-16T03:47:52.772Z,9.47
2023-03-16T03:50:21.287Z,8.77
2023-03-16T03:52:51.378Z,8.67
2023-03-16T03:55:19.430Z,5.53
2023-03-16T03:57:47.599Z,9.80
2023-03-16T04:00:16.820Z,10.90
2023-03-16T04:02:44.980Z,6.80
2023-03-16T04:05:13.139Z,6.63
2023-03-16T04:07:41.398Z,9.67
2023-03-16T04:10:12.008Z,7.83
2023-03-16T04:12:40.107Z,10.57
2023-03-16T04:15:08.863Z,7.53
2023-03-16T04:17:36.690Z,6.10
2023-03-16T04:20:10.695Z,8.93
2023-03-16T04:22:38.554Z,9.37
2023-03-16T04:25:06.833Z,6.27
2023-03-16T04:27:36.848Z,10.03
2023-03-16T04:30:06.112Z,7.77
2023-03-16T04:32:34.143Z,7.90
2023-03-16T04:35:02.009Z,10.77
2023-03-16T04:37:29.956Z,8.20
2023-03-16T04:39:57.911Z,6.80
2023-03-16T04:42:25.853Z,7.23
2023-03-16T04:44:56.237Z,7.27
2023-03-16T04:47:24.297Z,11.37
2023-03-16T04:49:52.176Z,9.37
2023-03-16T04:52:20.910Z,8.33
2023-03-16T04:54:48.873Z,6.67
2023-03-16T04:57:19.458Z,7.70
2023-03-16T04:59:47.392Z,11.10
2023-03-16T05:02:16.968Z,7.10
2023-03-16T05:04:45.202Z,7.83
2023-03-16T05:07:13.277Z,8.67
2023-03-16T05:09:41.744Z,5.70
2023-03-16T05:12:10.983Z,6.57
2023-03-16T05:14:39.576Z,5.30
2023-03-16T05:17:07.802Z,7.43
2023-03-16T05:19:37.111Z,9.70
2023-03-16T05:22:05.029Z,7.80
2023-03-16T05:24:33.073Z,7.73
2023-03-16T05:27:03.630Z,7.87
2023-03-16T05:29:32.249Z,21.80
2023-03-16T05:32:00.484Z,8.87
2023-03-16T05:34:28.676Z,6.20
2023-03-16T05:36:58.244Z,5.40
2023-03-16T05:39:26.416Z,7.20
2023-03-16T05:41:55.307Z,7.30
2023-03-16T05:44:23.592Z,8.53
2023-03-16T05:46:51.684Z,6.43
2023-03-16T05:49:19.741Z,8.57
2023-03-16T05:51:47.976Z,10.30
2023-03-16T05:54:17.297Z,7.60
2023-03-16T05:56:45.266Z,9.27
2023-03-16T05:59:13.097Z,7.27
2023-03-16T06:01:41.206Z,6.87
2023-03-16T06:04:09.870Z,7.07
2023-03-16T06:06:37.799Z,7.27
2023-03-16T06:09:05.780Z,6.97
2023-03-16T06:11:36.495Z,7.83
2023-03-16T06:14:05.275Z,8.83
2023-03-16T06:16:34.243Z,8.83
2023-03-16T06:19:02.769Z,7.47
2023-03-16T06:21:31.128Z,6.63
2023-03-16T06:23:59.391Z,8.63
2023-03-16T06:26:27.497Z,6.63
2023-03-16T06:28:56.827Z,7.17
2023-03-16T06:31:24.845Z,9.07
2023-03-16T06:33:52.967Z,9.53
2023-03-16T06:36:21.702Z,8.47
2023-03-16T06:38:49.726Z,10.90
2023-03-16T06:41:18.298Z,6.77
2023-03-16T06:43:46.577Z,6.97
2023-03-16T06:46:15.954Z,4.13
2023-03-16T06:48:43.959Z,6.70
2023-03-16T06:51:11.916Z,6.50
2023-03-16T06:53:41.424Z,6.07
2023-03-16T06:56:09.546Z,5.87
2023-03-16T06:58:37.637Z,7.63
2023-03-16T07:01:07.137Z,7.63
2023-03-16T07:03:36.557Z,6.63
2023-03-16T07:06:04.601Z,7.97
2023-03-16T07:08:32.518Z,8.13
2023-03-16T07:11:00.434Z,8.20
2023-03-16T07:13:28.514Z,6.97
2023-03-16T07:15:56.390Z,9.57
2023-03-16T07:18:26.035Z,7.30
2023-03-16T07:20:55.911Z,8.90
2023-03-16T07:23:24.673Z,7.97
2023-03-16T07:25:52.933Z,8.23
2023-03-16T07:28:21.142Z,7.40
2023-03-16T07:31:02.963Z,8.30
2023-03-16T07:33:32.598Z,8.57
2023-03-16T07:36:04.503Z,7.47
2023-03-16T07:38:33.585Z,6.23
2023-03-16T07:41:01.713Z,6.30
2023-03-16T07:43:30.320Z,8.50
2023-03-16T07:45:58.369Z,7.83
2023-03-16T07:48:26.746Z,6.87
2023-03-16T07:50:55.120Z,6.80
2023-03-16T07:53:24.509Z,6.27
2023-03-16T07:55:52.380Z,4.37
2023-03-16T07:58:20.294Z,9.03
2023-03-16T08:00:48.285Z,8.77
2023-03-16T08:03:16.275Z,9.87
2023-03-16T08:05:44.151Z,6.93
2023-03-16T08:08:12.054Z,10.20
2023-03-16T08:10:41.649Z,8.33
2023-03-16T08:13:09.597Z,9.20
2023-03-16T08:15:37.642Z,13.23
2023-03-16T08:18:07.118Z,9.70
2023-03-16T08:20:35.472Z,9.10
2023-03-16T08:23:06.073Z,8.27
2023-03-16T08:25:34.274Z,6.17
2023-03-16T08:28:04.618Z,7.33
2023-03-16T08:30:33.259Z,10.27
2023-03-16T08:33:03.262Z,7.77
2023-03-16T08:35:31.415Z,8.60
2023-03-16T08:37:59.879Z,7.60
2023-03-16T08:40:29.903Z,9.73
2023-03-16T08:42:58.164Z,7.93
2023-03-16T08:45:28.033Z,6.60
2023-03-16T08:47:56.146Z,7.40
2023-03-16T08:50:25.340Z,9.17
2023-03-16T08:52:53.617Z,7.53
2023-03-16T08:55:21.720Z,7.53
2023-03-16T08:57:49.950Z,7.40
2023-03-16T09:00:20.471Z,7.00
2023-03-16T09:02:50.163Z,6.33
2023-03-16T09:05:18.554Z,6.67
2023-03-16T09:07:48.909Z,9.77
2023-03-16T09:10:17.574Z,5.73
2023-03-16T09:12:48.712Z,7.67
2023-03-16T09:15:16.935Z,6.83
2023-03-16T09:17:45.883Z,8.50
2023-03-16T09:20:22.813Z,7.20
2023-03-16T09:22:54.648Z,6.30
2023-03-16T09:25:25.561Z,7.03
2023-03-16T09:27:53.852Z,6.83
2023-03-16T09:30:22.118Z,7.00
2023-03-16T09:32:50.533Z,6.30
2023-03-16T09:35:20.288Z,5.93
2023-03-16T09:38:04.797Z,6.93
2023-03-16T09:40:36.078Z,6.63
2023-03-16T09:43:27.637Z,4.23
2023-03-16T09:46:07.687Z,6.33
2023-03-16T09:48:38.726Z,6.60
2023-03-16T09:51:25.215Z,7.40
2023-03-16T09:54:00.351Z,6.57
2023-03-16T09:56:33.583Z,7.30
2023-03-16T09:59:03.278Z,6.33
2023-03-16T10:01:39.855Z,7.97
2023-03-16T10:04:21.437Z,4.80
2023-03-16T10:06:59.116Z,6.87
2023-03-16T10:09:35.902Z,4.40
2023-03-16T10:12:08.789Z,4.50
2023-03-16T10:14:45.930Z,5.83
2023-03-16T10:17:19.318Z,5.20
2023-03-16T10:19:52.653Z,4.23
2023-03-16T10:22:26.806Z,5.50
2023-03-16T10:25:03.693Z,4.40
2023-03-16T10:27:36.685Z,4.70
2023-03-16T10:30:21.355Z,4.33
2023-03-16T10:32:50.839Z,3.27
2023-03-16T10:35:42.954Z,4.93
2023-03-16T10:38:30.683Z,5.03
2023-03-16T10:40:58.948Z,3.33
2023-03-16T10:43:27.940Z,4.93
2023-03-16T10:46:02.354Z,5.23
2023-03-16T10:48:34.264Z,4.83
2023-03-16T10:51:09.372Z,4.33
2023-03-16T10:53:42.926Z,5.47
2023-03-16T10:56:13.867Z,5.07
2023-03-16T10:58:54.401Z,3.17
2023-03-16T11:01:26.975Z,4.63
2023-03-16T11:03:57.169Z,9.37
2023-03-16T11:06:30.679Z,3.13
2023-03-16T11:09:08.756Z,3.53
2023-03-16T11:11:38.910Z,4.53
2023-03-16T11:14:15.277Z,4.00
2023-03-16T11:16:47.817Z,3.60
2023-03-16T11:19:20.864Z,5.83
2023-03-16T11:21:55.126Z,5.17
2023-03-16T11:24:30.590Z,4.17
2023-03-16T11:27:06.112Z,5.87
2023-03-16T11:29:45.714Z,4.27
2023-03-16T11:32:20.854Z,5.07
2023-03-16T11:34:49.326Z,5.77
2023-03-16T11:37:31.831Z,5.23
2023-03-16T11:40:14.320Z,5.13
2023-03-16T11:42:54.881Z,4.13
2023-03-16T11:45:33.884Z,3.80
2023-03-16T11:48:34.573Z,3.40
2023-03-16T11:51:10.803Z,2.50
2023-03-16T11:53:53.091Z,4.10
2023-03-16T11:56:33.054Z,4.90
2023-03-16T11:59:24.448Z,3.37
2023-03-16T12:02:07.301Z,3.40
2023-03-16T12:04:55.584Z,3.03
2023-03-16T12:07:41.119Z,4.93
2023-03-16T12:10:25.066Z,4.00
2023-03-16T12:13:03.821Z,2.73
2023-03-16T12:15:38.583Z,3.23
2023-03-16T12:18:18.395Z,2.47
2023-03-16T12:20:53.584Z,4.43
2023-03-16T12:23:33.030Z,3.70
2023-03-16T12:26:04.917Z,3.53
2023-03-16T12:28:34.330Z,4.43
2023-03-16T12:31:13.513Z,3.27
2023-03-16T12:33:54.216Z,3.90
2023-03-16T12:36:52.246Z,2.97
2023-03-16T12:39:31.131Z,4.83
2023-03-16T12:42:10.292Z,5.27
2023-03-16T12:44:48.547Z,3.23
2023-03-16T12:47:24.051Z,2.80
2023-03-16T12:49:53.043Z,5.27
2023-03-16T12:52:21.572Z,3.73
2023-03-16T12:54:54.987Z,3.00
2023-03-16T12:57:27.110Z,2.40
2023-03-16T13:00:02.234Z,6.57
2023-03-16T13:02:32.941Z,4.23
2023-03-16T13:05:02.956Z,4.60
2023-03-16T13:07:33.401Z,3.03
2023-03-16T13:10:09.058Z,3.83
2023-03-16T13:12:40.075Z,5.83
2023-03-16T13:15:31.719Z,2.03
2023-03-16T13:18:23.981Z,4.97
2023-03-16T13:21:09.131Z,2.97
2023-03-16T13:23:54.564Z,3.40
2023-03-16T13:26:42.425Z,6.93
2023-03-16T13:29:25.928Z,3.00
2023-03-16T13:31:57.987Z,2.37
2023-03-16T13:34:30.690Z,3.87
2023-03-16T13:37:02.002Z,2.40
2023-03-16T13:39:31.680Z,2.70
2023-03-16T13:42:03.589Z,3.63
2023-03-16T13:44:35.252Z,3.37
2023-03-16T13:47:08.648Z,3.70
2023-03-16T13:49:44.835Z,3.37
2023-03-16T13:52:27.976Z,2.27
2023-03-16T13:54:57.521Z,2.57
2023-03-16T13:57:29.750Z,3.67
2023-03-16T14:00:05.811Z,2.10
2023-03-16T14:02:42.579Z,2.73
2023-03-16T14:05:13.164Z,1.70
2023-03-16T14:07:40.999Z,2.20
2023-03-16T14:10:12.616Z,2.90
2023-03-16T14:12:40.780Z,3.23
2023-03-16T14:15:10.241Z,3.93
2023-03-16T14:17:39.789Z,8.57
2023-03-16T14:20:16.189Z,1.23
2023-03-16T14:22:44.379Z,3.83
2023-03-16T14:25:22.180Z,1.90
2023-03-16T14:27:57.937Z,3.90
2023-03-16T14:30:28.125Z,2.03
2023-03-16T14:32:59.789Z,3.77
2023-03-16T14:35:30.352Z,3.70
2023-03-16T14:38:23.499Z,3.43
2023-03-16T14:40:56.648Z,3.30
2023-03-16T14:43:32.799Z,2.70
2023-03-16T14:46:01.725Z,3.50
2023-03-16T14:48:31.948Z,2.07
2023-03-16T14:51:02.198Z,2.73
2023-03-16T14:53:30.937Z,4.43
2023-03-16T14:56:00.291Z,3.07
2023-03-16T14:58:30.673Z,1.90
2023-03-16T15:01:01.774Z,2.87
2023-03-16T15:03:36.445Z,4.20
2023-03-16T15:06:07.712Z,2.93
2023-03-16T15:08:43.598Z,2.90
2023-03-16T15:11:12.002Z,4.50
2023-03-16T15:14:04.415Z,3.23
2023-03-16T15:16:32.876Z,4.63
2023-03-16T15:19:02.220Z,3.00
2023-03-16T15:21:36.111Z,3.33
2023-03-16T15:24:04.269Z,2.23
2023-03-16T15:26:32.882Z,1.97
2023-03-16T15:29:03.071Z,3.13
2023-03-16T15:31:33.306Z,4.77
2023-03-16T15:34:02.825Z,3.27
2023-03-16T15:36:31.199Z,3.50
2023-03-16T15:39:01.790Z,4.73
2023-03-16T15:41:38.175Z,2.73
2023-03-16T15:44:14.438Z,3.80
2023-03-16T15:46:42.699Z,3.30
2023-03-16T15:49:12.251Z,3.37
2023-03-16T15:51:42.570Z,3.50
2023-03-16T15:54:13.281Z,2.97
2023-03-16T15:56:53.784Z,6.03
2023-03-16T15:59:23.584Z,4.93
2023-03-16T16:01:52.900Z,4.33
2023-03-16T16:04:25.197Z,4.10
2023-03-16T16:06:56.047Z,4.53
2023-03-16T16:09:24.807Z,3.30
2023-03-16T16:11:53.043Z,6.57
2023-03-16T16:14:26.629Z,3.47
2023-03-16T16:16:55.902Z,4.33
2023-03-16T16:19:25.577Z,6.20
2023-03-16T16:21:53.997Z,3.77
2023-03-16T16:24:22.589Z,5.13
2023-03-16T16:26:55.610Z,3.73
2023-03-16T16:29:25.342Z,3.77
2023-03-16T16:31:53.485Z,4.97
2023-03-16T16:34:24.687Z,3.17
2023-03-16T16:36:54.685Z,3.30
2023-03-16T16:39:23.074Z,4.63
2023-03-16T16:41:54.804Z,3.87
2023-03-16T16:44:25.536Z,3.87
2023-03-16T16:46:54.097Z,7.00
2023-03-16T16:49:24.974Z,5.57
2023-03-16T16:51:55.486Z,2.57
2023-03-16T16:54:25.268Z,4.03
2023-03-16T16:56:56.329Z,5.00
2023-03-16T16:59:27.354Z,10.07
2023-03-16T17:01:56.612Z,2.60
2023-03-16T17:04:27.242Z,3.23
2023-03-16T17:06:59.067Z,3.00
2023-03-16T17:09:28.603Z,2.97
2023-03-16T17:11:59.038Z,3.57
2023-03-16T17:14:28.796Z,3.40
2023-03-16T17:16:57.466Z,2.40
2023-03-16T17:19:27.855Z,4.40
2023-03-16T17:21:59.235Z,5.07
2023-03-16T17:24:28.823Z,3.40
2023-03-16T17:26:59.435Z,2.37
2023-03-16T17:29:30.262Z,3.73
2023-03-16T17:31:59.662Z,2.63
2023-03-16T17:34:31.004Z,3.13
2023-03-16T17:37:00.571Z,3.73
2023-03-16T17:39:30.730Z,4.07
2023-03-16T17:42:00.452Z,4.07
2023-03-16T17:44:33.154Z,4.17
2023-03-16T17:47:01.381Z,3.63
2023-03-16T17:49:30.778Z,6.43
2023-03-16T17:52:00.678Z,4.00
2023-03-16T17:54:28.979Z,5.63
2023-03-16T17:56:57.051Z,4.07
2023-03-16T17:59:24.968Z,3.73
2023-03-16T18:01:53.109Z,7.77
2023-03-16T18:04:22.792Z,3.23
2023-03-16T18:06:51.572Z,4.20
2023-03-16T18:09:21.654Z,2.83
2023-03-16T18:11:51.758Z,3.97
2023-03-16T18:14:35.332Z,5.87
2023-03-16T18:17:05.462Z,4.17
2023-03-16T18:19:33.700Z,6.63
2023-03-16T18:22:04.230Z,5.23
2023-03-16T18:24:33.941Z,5.27
2023-03-16T18:27:01.948Z,6.27
2023-03-16T18:29:30.376Z,5.87
2023-03-16T18:31:59.363Z,8.43
2023-03-16T18:34:36.295Z,4.07
2023-03-16T18:37:06.335Z,3.60
2023-03-16T18:39:35.772Z,5.37
2023-03-16T18:42:03.937Z,4.60
2023-03-16T18:44:33.030Z,4.07
2023-03-16T18:47:04.398Z,4.77
2023-03-16T18:49:35.222Z,7.13
2023-03-16T18:52:04.794Z,6.97
2023-03-16T18:54:36.807Z,5.73
2023-03-16T18:57:06.891Z,5.67
2023-03-16T18:59:34.784Z,4.37
2023-03-16T19:02:03.266Z,6.50
2023-03-16T19:04:32.855Z,8.67
2023-03-16T19:07:01.248Z,5.50
2023-03-16T19:09:31.230Z,5.20
2023-03-16T19:12:00.424Z,5.07
2023-03-16T19:14:32.022Z,7.23
2023-03-16T19:17:00.305Z,8.47
2023-03-16T19:19:28.533Z,5.10
2023-03-16T19:21:59.538Z,6.83
2023-03-16T19:24:30.119Z,8.70
2023-03-16T19:26:58.873Z,6.67
2023-03-16T19:29:37.235Z,6.03
2023-03-16T19:32:05.709Z,9.90
2023-03-16T19:34:33.818Z,5.17
2023-03-16T19:37:01.873Z,6.67
2023-03-16T19:39:29.825Z,5.57
2023-03-16T19:41:59.528Z,6.03
2023-03-16T19:44:29.837Z,6.57
2023-03-16T19:46:59.173Z,9.23
2023-03-16T19:49:33.867Z,6.07
2023-03-16T19:52:02.310Z,6.93
2023-03-16T19:54:33.521Z,7.70
2023-03-16T19:57:08.013Z,7.33
2023-03-16T19:59:41.845Z,6.00
2023-03-16T20:02:25.164Z,5.33
2023-03-16T20:04:53.336Z,5.53
2023-03-16T20:07:22.086Z,8.53
2023-03-16T20:09:50.879Z,9.53
2023-03-16T20:12:24.038Z,6.07
2023-03-16T20:14:54.288Z,5.23
2023-03-16T20:17:24.554Z,5.53
2023-03-16T20:19:53.815Z,9.27
2023-03-16T20:22:23.353Z,6.10
2023-03-16T20:24:51.493Z,5.53
2023-03-16T20:27:20.457Z,5.80
2023-03-16T20:32:43.214Z,6.63
2023-03-16T20:35:28.101Z,4.90
2023-03-16T20:37:59.579Z,5.93
2023-03-16T20:40:28.585Z,5.63
2023-03-16T20:42:58.988Z,3.73
2023-03-16T20:45:32.047Z,7.13
2023-03-16T20:48:01.801Z,8.40
2023-03-16T20:50:31.906Z,7.83
2023-03-16T20:53:00.020Z,8.20
2023-03-16T20:55:30.161Z,5.30
2023-03-16T20:58:02.966Z,5.63
2023-03-16T21:00:33.387Z,6.93
2023-03-16T21:03:05.639Z,6.37
2023-03-16T21:05:33.936Z,5.60
2023-03-16T21:08:01.881Z,4.67
2023-03-16T21:10:32.067Z,5.57
2023-03-16T21:12:59.900Z,5.83
2023-03-16T21:15:30.669Z,4.23
2023-03-16T21:18:01.326Z,6.10
2023-03-16T21:20:33.076Z,6.17
2023-03-16T21:23:01.455Z,5.20
2023-03-16T21:25:32.732Z,5.80
2023-03-16T21:28:03.966Z,5.97
2023-03-16T21:30:34.964Z,6.00
2023-03-16T21:33:04.119Z,6.30
2023-03-16T21:35:38.382Z,3.30
2023-03-16T21:38:14.578Z,4.33
2023-03-16T21:40:52.819Z,5.40
2023-03-16T21:43:27.129Z,4.57
2023-03-16T21:45:57.520Z,4.93
2023-03-16T21:48:33.125Z,5.00
2023-03-16T21:51:02.694Z,5.67
2023-03-16T21:53:33.410Z,5.30
2023-03-16T21:56:01.366Z,6.07
2023-03-16T21:58:29.359Z,6.60
2023-03-16T22:00:58.517Z,5.93
2023-03-16T22:03:44.212Z,5.77
2023-03-16T22:06:19.265Z,8.43
2023-03-16T22:08:47.364Z,6.20
2023-03-16T22:11:17.428Z,5.73
2023-03-16T22:13:46.626Z,4.87
2023-03-16T22:16:17.393Z,7.40
2023-03-16T22:18:47.219Z,6.33
2023-03-16T22:21:30.758Z,4.87
2023-03-16T22:24:02.079Z,6.37
2023-03-16T22:26:31.062Z,5.60
2023-03-16T22:29:01.768Z,5.57
2023-03-16T22:31:34.242Z,6.67
2023-03-16T22:34:03.715Z,3.67
2023-03-16T22:36:34.881Z,5.50
2023-03-16T22:39:05.522Z,6.17
2023-03-16T22:41:36.939Z,5.77
2023-03-16T22:44:05.093Z,5.10
2023-03-16T22:46:32.953Z,4.43
2023-03-16T22:49:00.945Z,4.50
2023-03-16T22:51:36.547Z,6.63
2023-03-16T22:54:07.006Z,5.53
2023-03-16T22:56:36.968Z,5.30
2023-03-16T22:59:12.767Z,4.33
2023-03-16T23:01:42.899Z,4.10
2023-03-16T23:04:15.931Z,4.80
2023-03-16T23:06:45.250Z,5.57
2023-03-16T23:09:15.447Z,6.87
2023-03-16T23:11:47.284Z,7.03
2023-03-16T23:14:17.010Z,5.67
2023-03-16T23:16:45.807Z,5.93
2023-03-16T23:19:25.103Z,6.20
2023-03-16T23:21:57.039Z,5.47
2023-03-16T23:24:25.474Z,4.97
2023-03-16T23:26:55.183Z,7.30
2023-03-16T23:29:24.270Z,6.73
2023-03-16T23:31:53.887Z,4.60
2023-03-16T23:34:24.085Z,3.60
2023-03-16T23:36:52.702Z,4.83
2023-03-16T23:39:22.056Z,4.70
2023-03-16T23:41:51.319Z,4.30
2023-03-16T23:44:22.465Z,4.03
2023-03-16T23:46:50.853Z,4.57
2023-03-16T23:49:21.554Z,3.93
2023-03-16T23:51:49.661Z,4.37
2023-03-16T23:54:20.728Z,4.50
2023-03-16T23:56:50.139Z,4.90
2023-03-16T23:59:19.276Z,6.23
